sensor_id;sensor_type;location;lat;lon;timestamp;P1;durP1;ratioP1;P2;durP2;ratioP2
68250;SDS011;55066;51.560;4.642;2022-09-21T00:01:53;7.87;;;3.47;;
68250;SDS011;55066;51.560;4.642;2022-09-21T00:04:19;9.07;;;4.30;;
68250;SDS011;55066;51.560;4.642;2022-09-21T00:06:44;7.47;;;3.40;;
68250;SDS011;55066;51.560;4.642;2022-09-21T00:09:11;8.35;;;3.47;;
68250;SDS011;55066;51.560;4.642;2022-09-21T00:11:36;8.40;;;3.25;;
68250;SDS011;55066;51.560;4.642;2022-09-21T00:14:06;11.83;;;4.00;;
68250;SDS011;55066;51.560;4.642;2022-09-21T00:16:34;9.00;;;3.78;;
68250;SDS011;55066;51.560;4.642;2022-09-21T00:19:00;10.57;;;4.30;;
68250;SDS011;55066;51.560;4.642;2022-09-21T00:21:26;9.65;;;3.90;;
68250;SDS011;55066;51.560;4.642;2022-09-21T00:23:52;9.18;;;4.53;;
68250;SDS011;55066;51.560;4.642;2022-09-21T00:26:22;14.05;;;4.13;;
68250;SDS011;55066;51.560;4.642;2022-09-21T00:28:52;9.68;;;3.80;;
68250;SDS011;55066;51.560;4.642;2022-09-21T00:31:19;9.75;;;4.10;;
68250;SDS011;55066;51.560;4.642;2022-09-21T00:33:45;6.28;;;2.90;;
68250;SDS011;55066;51.560;4.642;2022-09-21T00:36:11;7.53;;;3.50;;
68250;SDS011;55066;51.560;4.642;2022-09-21T00:38:39;7.30;;;3.40;;
68250;SDS011;55066;51.560;4.642;2022-09-21T00:41:05;9.38;;;4.10;;
68250;SDS011;55066;51.560;4.642;2022-09-21T00:43:33;10.38;;;4.30;;
68250;SDS011;55066;51.560;4.642;2022-09-21T00:46:02;10.07;;;4.70;;
68250;SDS011;55066;51.560;4.642;2022-09-21T00:48:31;12.77;;;5.85;;
68250;SDS011;55066;51.560;4.642;2022-09-21T00:50:58;12.15;;;5.00;;
68250;SDS011;55066;51.560;4.642;2022-09-21T00:53:28;8.80;;;4.50;;
68250;SDS011;55066;51.560;4.642;2022-09-21T00:55:54;10.25;;;4.40;;
68250;SDS011;55066;51.560;4.642;2022-09-21T00:58:26;10.27;;;4.68;;
68250;SDS011;55066;51.560;4.642;2022-09-21T01:00:55;9.48;;;4.50;;
68250;SDS011;55066;51.560;4.642;2022-09-21T01:03:23;11.48;;;4.65;;
68250;SDS011;55066;51.560;4.642;2022-09-21T01:05:49;9.57;;;4.30;;
68250;SDS011;55066;51.560;4.642;2022-09-21T01:08:15;13.60;;;4.68;;
68250;SDS011;55066;51.560;4.642;2022-09-21T01:13:24;9.27;;;4.07;;
68250;SDS011;55066;51.560;4.642;2022-09-21T01:15:55;9.25;;;4.70;;
68250;SDS011;55066;51.560;4.642;2022-09-21T01:18:33;11.10;;;4.40;;
68250;SDS011;55066;51.560;4.642;2022-09-21T01:34:30;8.15;;;4.50;;
68250;SDS011;55066;51.560;4.642;2022-09-21T01:37:04;6.65;;;4.05;;
68250;SDS011;55066;51.560;4.642;2022-09-21T01:39:34;10.50;;;4.82;;
68250;SDS011;55066;51.560;4.642;2022-09-21T01:42:03;15.10;;;5.07;;
68250;SDS011;55066;51.560;4.642;2022-09-21T01:44:31;9.10;;;4.50;;
68250;SDS011;55066;51.560;4.642;2022-09-21T01:47:00;13.00;;;4.90;;
68250;SDS011;55066;51.560;4.642;2022-09-21T01:49:32;11.82;;;4.80;;
68250;SDS011;55066;51.560;4.642;2022-09-21T01:52:04;12.02;;;5.13;;
68250;SDS011;55066;51.560;4.642;2022-09-21T01:55:05;9.82;;;4.57;;
68250;SDS011;55066;51.560;4.642;2022-09-21T01:57:44;8.77;;;4.43;;
68250;SDS011;55066;51.560;4.642;2022-09-21T02:00:19;12.05;;;4.45;;
68250;SDS011;55066;51.560;4.642;2022-09-21T02:02:55;8.77;;;4.30;;
68250;SDS011;55066;51.560;4.642;2022-09-21T02:05:24;9.48;;;3.92;;
68250;SDS011;55066;51.560;4.642;2022-09-21T02:07:52;9.15;;;4.18;;
68250;SDS011;55066;51.560;4.642;2022-09-21T02:10:20;9.77;;;4.07;;
68250;SDS011;55066;51.560;4.642;2022-09-21T02:12:52;9.40;;;4.47;;
68250;SDS011;55066;51.560;4.642;2022-09-21T02:15:23;10.40;;;4.07;;
68250;SDS011;55066;51.560;4.642;2022-09-21T02:18:14;11.05;;;4.40;;
68250;SDS011;55066;51.560;4.642;2022-09-21T02:20:53;12.23;;;4.65;;
68250;SDS011;55066;51.560;4.642;2022-09-21T02:23:25;8.75;;;4.00;;
68250;SDS011;55066;51.560;4.642;2022-09-21T02:28:42;6.93;;;3.30;;
68250;SDS011;55066;51.560;4.642;2022-09-21T02:31:29;5.75;;;2.80;;
68250;SDS011;55066;51.560;4.642;2022-09-21T02:36:44;12.70;;;4.70;;
68250;SDS011;55066;51.560;4.642;2022-09-21T02:39:23;7.85;;;3.92;;
68250;SDS011;55066;51.560;4.642;2022-09-21T02:45:15;7.88;;;4.00;;
68250;SDS011;55066;51.560;4.642;2022-09-21T02:47:59;7.18;;;4.07;;
68250;SDS011;55066;51.560;4.642;2022-09-21T02:50:30;11.93;;;4.13;;
68250;SDS011;55066;51.560;4.642;2022-09-21T02:53:00;7.68;;;2.95;;
68250;SDS011;55066;51.560;4.642;2022-09-21T02:55:29;7.37;;;3.70;;
68250;SDS011;55066;51.560;4.642;2022-09-21T02:57:56;9.13;;;3.83;;
68250;SDS011;55066;51.560;4.642;2022-09-21T03:00:21;8.10;;;3.13;;
68250;SDS011;55066;51.560;4.642;2022-09-21T03:02:47;10.05;;;3.90;;
68250;SDS011;55066;51.560;4.642;2022-09-21T03:05:12;8.97;;;4.23;;
68250;SDS011;55066;51.560;4.642;2022-09-21T03:07:39;7.38;;;3.33;;
68250;SDS011;55066;51.560;4.642;2022-09-21T03:10:05;7.25;;;3.38;;
68250;SDS011;55066;51.560;4.642;2022-09-21T03:12:33;8.83;;;3.70;;
68250;SDS011;55066;51.560;4.642;2022-09-21T03:14:58;8.50;;;4.20;;
68250;SDS011;55066;51.560;4.642;2022-09-21T03:17:24;9.03;;;4.03;;
68250;SDS011;55066;51.560;4.642;2022-09-21T03:19:50;7.45;;;3.67;;
68250;SDS011;55066;51.560;4.642;2022-09-21T03:22:19;7.13;;;3.53;;
68250;SDS011;55066;51.560;4.642;2022-09-21T03:24:45;7.72;;;3.95;;
68250;SDS011;55066;51.560;4.642;2022-09-21T03:27:12;6.63;;;3.00;;
68250;SDS011;55066;51.560;4.642;2022-09-21T03:29:41;8.88;;;3.83;;
68250;SDS011;55066;51.560;4.642;2022-09-21T03:32:07;7.73;;;4.20;;
68250;SDS011;55066;51.560;4.642;2022-09-21T03:34:32;12.35;;;4.80;;
68250;SDS011;55066;51.560;4.642;2022-09-21T03:37:01;7.90;;;4.03;;
68250;SDS011;55066;51.560;4.642;2022-09-21T03:39:28;7.93;;;4.18;;
68250;SDS011;55066;51.560;4.642;2022-09-21T03:41:53;9.63;;;4.80;;
68250;SDS011;55066;51.560;4.642;2022-09-21T03:44:20;8.80;;;3.47;;
68250;SDS011;55066;51.560;4.642;2022-09-21T03:46:45;4.93;;;2.73;;
68250;SDS011;55066;51.560;4.642;2022-09-21T03:49:11;10.03;;;4.53;;
68250;SDS011;55066;51.560;4.642;2022-09-21T03:51:37;9.90;;;4.20;;
68250;SDS011;55066;51.560;4.642;2022-09-21T03:54:03;4.80;;;2.75;;
68250;SDS011;55066;51.560;4.642;2022-09-21T03:56:29;10.67;;;4.30;;
68250;SDS011;55066;51.560;4.642;2022-09-21T03:58:55;5.35;;;2.80;;
68250;SDS011;55066;51.560;4.642;2022-09-21T04:01:20;8.77;;;4.13;;
68250;SDS011;55066;51.560;4.642;2022-09-21T04:03:45;8.13;;;4.30;;
68250;SDS011;55066;51.560;4.642;2022-09-21T04:06:11;5.57;;;3.05;;
68250;SDS011;55066;51.560;4.642;2022-09-21T04:08:38;7.38;;;3.40;;
68250;SDS011;55066;51.560;4.642;2022-09-21T04:11:10;9.13;;;3.90;;
68250;SDS011;55066;51.560;4.642;2022-09-21T04:13:37;9.90;;;4.47;;
68250;SDS011;55066;51.560;4.642;2022-09-21T04:16:03;6.95;;;3.75;;
68250;SDS011;55066;51.560;4.642;2022-09-21T04:18:29;8.97;;;4.50;;
68250;SDS011;55066;51.560;4.642;2022-09-21T04:20:54;8.18;;;4.05;;
68250;SDS011;55066;51.560;4.642;2022-09-21T04:23:20;9.70;;;3.87;;
68250;SDS011;55066;51.560;4.642;2022-09-21T04:25:47;8.60;;;4.53;;
68250;SDS011;55066;51.560;4.642;2022-09-21T04:28:15;10.73;;;4.33;;
68250;SDS011;55066;51.560;4.642;2022-09-21T04:30:41;8.95;;;4.07;;
68250;SDS011;55066;51.560;4.642;2022-09-21T04:33:06;5.73;;;3.03;;
68250;SDS011;55066;51.560;4.642;2022-09-21T04:35:31;9.03;;;4.03;;
68250;SDS011;55066;51.560;4.642;2022-09-21T04:37:56;8.70;;;4.23;;
68250;SDS011;55066;51.560;4.642;2022-09-21T04:40:22;9.97;;;4.33;;
68250;SDS011;55066;51.560;4.642;2022-09-21T04:42:53;8.17;;;3.87;;
68250;SDS011;55066;51.560;4.642;2022-09-21T04:45:22;6.93;;;3.17;;
68250;SDS011;55066;51.560;4.642;2022-09-21T04:47:48;9.20;;;4.53;;
68250;SDS011;55066;51.560;4.642;2022-09-21T04:50:14;8.20;;;3.97;;
68250;SDS011;55066;51.560;4.642;2022-09-21T04:52:39;7.35;;;3.15;;
68250;SDS011;55066;51.560;4.642;2022-09-21T04:55:05;7.53;;;3.43;;
68250;SDS011;55066;51.560;4.642;2022-09-21T04:57:31;9.60;;;4.25;;
68250;SDS011;55066;51.560;4.642;2022-09-21T04:59:57;6.67;;;3.33;;
68250;SDS011;55066;51.560;4.642;2022-09-21T05:02:22;9.47;;;4.33;;
68250;SDS011;55066;51.560;4.642;2022-09-21T05:04:48;14.10;;;5.00;;
68250;SDS011;55066;51.560;4.642;2022-09-21T05:07:14;9.43;;;4.77;;
68250;SDS011;55066;51.560;4.642;2022-09-21T05:09:39;10.40;;;4.88;;
68250;SDS011;55066;51.560;4.642;2022-09-21T05:12:23;9.57;;;4.65;;
68250;SDS011;55066;51.560;4.642;2022-09-21T05:14:49;15.85;;;5.93;;
68250;SDS011;55066;51.560;4.642;2022-09-21T05:17:14;10.03;;;4.53;;
68250;SDS011;55066;51.560;4.642;2022-09-21T05:19:39;11.60;;;4.47;;
68250;SDS011;55066;51.560;4.642;2022-09-21T05:22:05;10.03;;;4.03;;
68250;SDS011;55066;51.560;4.642;2022-09-21T05:24:31;14.07;;;4.53;;
68250;SDS011;55066;51.560;4.642;2022-09-21T05:26:56;12.00;;;5.33;;
68250;SDS011;55066;51.560;4.642;2022-09-21T05:29:22;10.77;;;4.87;;
68250;SDS011;55066;51.560;4.642;2022-09-21T05:31:48;9.48;;;3.47;;
68250;SDS011;55066;51.560;4.642;2022-09-21T05:34:40;12.50;;;4.73;;
68250;SDS011;55066;51.560;4.642;2022-09-21T05:39:50;11.57;;;5.00;;
68250;SDS011;55066;51.560;4.642;2022-09-21T05:42:16;6.97;;;3.30;;
68250;SDS011;55066;51.560;4.642;2022-09-21T05:44:42;10.65;;;4.70;;
68250;SDS011;55066;51.560;4.642;2022-09-21T05:47:24;10.67;;;4.90;;
68250;SDS011;55066;51.560;4.642;2022-09-21T05:53:04;9.82;;;4.68;;
68250;SDS011;55066;51.560;4.642;2022-09-21T05:55:41;11.77;;;5.18;;
68250;SDS011;55066;51.560;4.642;2022-09-21T06:03:47;15.00;;;5.40;;
68250;SDS011;55066;51.560;4.642;2022-09-21T06:06:14;16.15;;;5.85;;
68250;SDS011;55066;51.560;4.642;2022-09-21T06:08:41;12.50;;;5.85;;
68250;SDS011;55066;51.560;4.642;2022-09-21T06:11:06;14.57;;;5.80;;
68250;SDS011;55066;51.560;4.642;2022-09-21T06:13:32;12.47;;;6.00;;
68250;SDS011;55066;51.560;4.642;2022-09-21T06:16:00;11.80;;;5.50;;
68250;SDS011;55066;51.560;4.642;2022-09-21T06:18:26;14.68;;;5.85;;
68250;SDS011;55066;51.560;4.642;2022-09-21T06:20:51;13.57;;;6.27;;
68250;SDS011;55066;51.560;4.642;2022-09-21T06:23:17;16.57;;;6.90;;
68250;SDS011;55066;51.560;4.642;2022-09-21T06:25:42;13.25;;;6.22;;
68250;SDS011;55066;51.560;4.642;2022-09-21T06:28:08;16.33;;;7.47;;
68250;SDS011;55066;51.560;4.642;2022-09-21T06:30:38;15.43;;;7.07;;
68250;SDS011;55066;51.560;4.642;2022-09-21T06:33:06;14.60;;;7.18;;
68250;SDS011;55066;51.560;4.642;2022-09-21T06:35:33;19.80;;;8.20;;
68250;SDS011;55066;51.560;4.642;2022-09-21T06:38:00;15.77;;;7.68;;
68250;SDS011;55066;51.560;4.642;2022-09-21T06:40:27;19.33;;;8.25;;
68250;SDS011;55066;51.560;4.642;2022-09-21T06:43:00;18.48;;;8.60;;
68250;SDS011;55066;51.560;4.642;2022-09-21T06:45:27;19.70;;;9.73;;
68250;SDS011;55066;51.560;4.642;2022-09-21T06:47:54;19.17;;;9.05;;
68250;SDS011;55066;51.560;4.642;2022-09-21T06:50:19;22.48;;;10.10;;
68250;SDS011;55066;51.560;4.642;2022-09-21T06:52:45;26.63;;;10.43;;
68250;SDS011;55066;51.560;4.642;2022-09-21T06:55:11;27.70;;;11.27;;
68250;SDS011;55066;51.560;4.642;2022-09-21T06:57:37;23.67;;;10.27;;
68250;SDS011;55066;51.560;4.642;2022-09-21T07:00:04;21.17;;;9.85;;
68250;SDS011;55066;51.560;4.642;2022-09-21T07:02:30;20.27;;;10.25;;
68250;SDS011;55066;51.560;4.642;2022-09-21T07:04:56;26.63;;;10.30;;
68250;SDS011;55066;51.560;4.642;2022-09-21T07:07:22;21.77;;;9.60;;
68250;SDS011;55066;51.560;4.642;2022-09-21T07:09:48;21.77;;;9.63;;
68250;SDS011;55066;51.560;4.642;2022-09-21T07:12:13;22.00;;;9.17;;
68250;SDS011;55066;51.560;4.642;2022-09-21T07:14:40;18.30;;;9.57;;
68250;SDS011;55066;51.560;4.642;2022-09-21T07:17:06;23.67;;;9.25;;
68250;SDS011;55066;51.560;4.642;2022-09-21T07:19:32;17.73;;;8.27;;
68250;SDS011;55066;51.560;4.642;2022-09-21T07:21:58;19.05;;;8.32;;
68250;SDS011;55066;51.560;4.642;2022-09-21T07:24:23;16.30;;;7.30;;
68250;SDS011;55066;51.560;4.642;2022-09-21T07:26:48;17.67;;;7.03;;
68250;SDS011;55066;51.560;4.642;2022-09-21T07:29:14;17.38;;;7.03;;
68250;SDS011;55066;51.560;4.642;2022-09-21T07:31:42;14.03;;;6.13;;
68250;SDS011;55066;51.560;4.642;2022-09-21T07:34:08;15.18;;;6.07;;
68250;SDS011;55066;51.560;4.642;2022-09-21T07:36:34;13.47;;;6.37;;
68250;SDS011;55066;51.560;4.642;2022-09-21T07:38:59;16.70;;;6.67;;
68250;SDS011;55066;51.560;4.642;2022-09-21T07:41:25;20.77;;;6.47;;
68250;SDS011;55066;51.560;4.642;2022-09-21T07:43:50;14.23;;;5.60;;
68250;SDS011;55066;51.560;4.642;2022-09-21T07:46:17;12.75;;;5.60;;
68250;SDS011;55066;51.560;4.642;2022-09-21T07:48:42;13.70;;;5.55;;
68250;SDS011;55066;51.560;4.642;2022-09-21T07:51:09;12.77;;;5.33;;
68250;SDS011;55066;51.560;4.642;2022-09-21T07:53:36;11.75;;;5.15;;
68250;SDS011;55066;51.560;4.642;2022-09-21T07:56:07;12.20;;;4.82;;
68250;SDS011;55066;51.560;4.642;2022-09-21T07:58:35;12.38;;;5.80;;
68250;SDS011;55066;51.560;4.642;2022-09-21T08:01:19;12.70;;;5.20;;
68250;SDS011;55066;51.560;4.642;2022-09-21T08:03:49;12.77;;;5.38;;
68250;SDS011;55066;51.560;4.642;2022-09-21T08:06:15;14.70;;;5.65;;
68250;SDS011;55066;51.560;4.642;2022-09-21T08:08:41;15.68;;;5.95;;
68250;SDS011;55066;51.560;4.642;2022-09-21T08:11:06;11.53;;;4.90;;
68250;SDS011;55066;51.560;4.642;2022-09-21T08:13:32;13.07;;;4.55;;
68250;SDS011;55066;51.560;4.642;2022-09-21T08:15:58;10.57;;;3.78;;
68250;SDS011;55066;51.560;4.642;2022-09-21T08:18:25;13.35;;;4.25;;
68250;SDS011;55066;51.560;4.642;2022-09-21T08:20:58;8.53;;;3.70;;
68250;SDS011;55066;51.560;4.642;2022-09-21T08:23:24;11.65;;;4.40;;
68250;SDS011;55066;51.560;4.642;2022-09-21T08:25:56;12.80;;;3.97;;
68250;SDS011;55066;51.560;4.642;2022-09-21T08:28:29;11.57;;;3.70;;
68250;SDS011;55066;51.560;4.642;2022-09-21T08:31:02;11.43;;;3.50;;
68250;SDS011;55066;51.560;4.642;2022-09-21T08:33:28;9.45;;;3.13;;
68250;SDS011;55066;51.560;4.642;2022-09-21T08:35:54;9.05;;;3.60;;
68250;SDS011;55066;51.560;4.642;2022-09-21T08:38:21;8.85;;;3.42;;
68250;SDS011;55066;51.560;4.642;2022-09-21T08:40:47;9.75;;;3.85;;
68250;SDS011;55066;51.560;4.642;2022-09-21T08:43:17;12.23;;;3.80;;
68250;SDS011;55066;51.560;4.642;2022-09-21T08:45:46;10.60;;;3.30;;
68250;SDS011;55066;51.560;4.642;2022-09-21T08:48:32;5.93;;;2.80;;
68250;SDS011;55066;51.560;4.642;2022-09-21T08:51:03;9.43;;;2.85;;
68250;SDS011;55066;51.560;4.642;2022-09-21T08:53:39;12.05;;;3.15;;
68250;SDS011;55066;51.560;4.642;2022-09-21T08:56:12;10.13;;;3.45;;
68250;SDS011;55066;51.560;4.642;2022-09-21T08:58:38;6.82;;;3.40;;
68250;SDS011;55066;51.560;4.642;2022-09-21T09:09:49;6.85;;;2.22;;
68250;SDS011;55066;51.560;4.642;2022-09-21T09:12:36;7.50;;;2.80;;
68250;SDS011;55066;51.560;4.642;2022-09-21T09:15:31;6.17;;;2.60;;
68250;SDS011;55066;51.560;4.642;2022-09-21T09:18:13;6.13;;;2.42;;
68250;SDS011;55066;51.560;4.642;2022-09-21T09:20:48;7.72;;;2.50;;
68250;SDS011;55066;51.560;4.642;2022-09-21T09:23:27;7.55;;;1.90;;
68250;SDS011;55066;51.560;4.642;2022-09-21T09:26:00;6.90;;;1.73;;
68250;SDS011;55066;51.560;4.642;2022-09-21T09:28:34;8.10;;;1.90;;
68250;SDS011;55066;51.560;4.642;2022-09-21T09:31:17;4.32;;;1.30;;
68250;SDS011;55066;51.560;4.642;2022-09-21T09:37:09;8.45;;;1.30;;
68250;SDS011;55066;51.560;4.642;2022-09-21T09:39:42;5.65;;;1.20;;
68250;SDS011;55066;51.560;4.642;2022-09-21T09:45:02;7.35;;;1.40;;
68250;SDS011;55066;51.560;4.642;2022-09-21T09:50:07;10.73;;;1.92;;
68250;SDS011;55066;51.560;4.642;2022-09-21T09:52:37;5.72;;;1.50;;
68250;SDS011;55066;51.560;4.642;2022-09-21T09:55:14;7.20;;;1.60;;
68250;SDS011;55066;51.560;4.642;2022-09-21T09:57:44;3.85;;;1.02;;
68250;SDS011;55066;51.560;4.642;2022-09-21T10:00:17;6.47;;;1.08;;
68250;SDS011;55066;51.560;4.642;2022-09-21T10:02:45;4.97;;;1.10;;
68250;SDS011;55066;51.560;4.642;2022-09-21T10:05:22;4.78;;;1.30;;
68250;SDS011;55066;51.560;4.642;2022-09-21T10:08:05;6.10;;;0.97;;
68250;SDS011;55066;51.560;4.642;2022-09-21T10:10:50;4.22;;;1.20;;
68250;SDS011;55066;51.560;4.642;2022-09-21T10:13:24;5.23;;;1.10;;
68250;SDS011;55066;51.560;4.642;2022-09-21T10:18:37;5.25;;;1.02;;
68250;SDS011;55066;51.560;4.642;2022-09-21T10:21:16;3.55;;;1.02;;
68250;SDS011;55066;51.560;4.642;2022-09-21T10:26:47;10.93;;;1.30;;
68250;SDS011;55066;51.560;4.642;2022-09-21T10:31:53;3.10;;;0.90;;
68250;SDS011;55066;51.560;4.642;2022-09-21T10:34:27;2.85;;;0.82;;
68250;SDS011;55066;51.560;4.642;2022-09-21T10:36:55;2.35;;;0.85;;
68250;SDS011;55066;51.560;4.642;2022-09-21T10:39:28;4.53;;;0.98;;
68250;SDS011;55066;51.560;4.642;2022-09-21T10:42:05;4.87;;;1.20;;
68250;SDS011;55066;51.560;4.642;2022-09-21T10:44:37;6.18;;;1.10;;
68250;SDS011;55066;51.560;4.642;2022-09-21T10:47:18;4.60;;;1.30;;
68250;SDS011;55066;51.560;4.642;2022-09-21T10:49:50;4.22;;;1.25;;
68250;SDS011;55066;51.560;4.642;2022-09-21T10:52:19;4.75;;;0.95;;
68250;SDS011;55066;51.560;4.642;2022-09-21T10:54:47;3.40;;;0.73;;
68250;SDS011;55066;51.560;4.642;2022-09-21T10:57:17;4.97;;;1.17;;
68250;SDS011;55066;51.560;4.642;2022-09-21T10:59:44;3.90;;;0.70;;
68250;SDS011;55066;51.560;4.642;2022-09-21T11:04:58;4.53;;;1.23;;
68250;SDS011;55066;51.560;4.642;2022-09-21T11:07:48;5.50;;;0.90;;
68250;SDS011;55066;51.560;4.642;2022-09-21T11:10:29;3.45;;;0.80;;
68250;SDS011;55066;51.560;4.642;2022-09-21T11:13:14;2.65;;;0.70;;
68250;SDS011;55066;51.560;4.642;2022-09-21T11:16:03;4.25;;;0.82;;
68250;SDS011;55066;51.560;4.642;2022-09-21T11:27:14;4.57;;;0.90;;
68250;SDS011;55066;51.560;4.642;2022-09-21T11:29:54;3.17;;;0.70;;
68250;SDS011;55066;51.560;4.642;2022-09-21T11:40:28;5.70;;;0.60;;
68250;SDS011;55066;51.560;4.642;2022-09-21T11:50:56;3.53;;;0.83;;
68250;SDS011;55066;51.560;4.642;2022-09-21T12:01:54;4.28;;;0.90;;
68250;SDS011;55066;51.560;4.642;2022-09-21T12:04:53;4.75;;;0.90;;
68250;SDS011;55066;51.560;4.642;2022-09-21T12:07:28;4.35;;;0.70;;
68250;SDS011;55066;51.560;4.642;2022-09-21T12:13:05;4.57;;;0.75;;
68250;SDS011;55066;51.560;4.642;2022-09-21T12:15:40;4.82;;;1.08;;
68250;SDS011;55066;51.560;4.642;2022-09-21T12:18:18;3.00;;;0.70;;
68250;SDS011;55066;51.560;4.642;2022-09-21T12:21:05;4.10;;;0.80;;
68250;SDS011;55066;51.560;4.642;2022-09-21T12:26:09;4.10;;;0.55;;
68250;SDS011;55066;51.560;4.642;2022-09-21T12:28:46;2.53;;;0.73;;
68250;SDS011;55066;51.560;4.642;2022-09-21T12:31:19;4.03;;;0.80;;
68250;SDS011;55066;51.560;4.642;2022-09-21T12:33:57;2.90;;;0.68;;
68250;SDS011;55066;51.560;4.642;2022-09-21T12:36:40;4.23;;;0.80;;
68250;SDS011;55066;51.560;4.642;2022-09-21T12:44:30;2.20;;;0.65;;
68250;SDS011;55066;51.560;4.642;2022-09-21T12:47:16;3.38;;;0.60;;
68250;SDS011;55066;51.560;4.642;2022-09-21T12:49:47;4.63;;;0.90;;
68250;SDS011;55066;51.560;4.642;2022-09-21T12:52:18;1.83;;;0.60;;
68250;SDS011;55066;51.560;4.642;2022-09-21T13:00:08;2.05;;;0.70;;
68250;SDS011;55066;51.560;4.642;2022-09-21T13:02:45;2.67;;;0.70;;
68250;SDS011;55066;51.560;4.642;2022-09-21T13:10:45;2.70;;;0.70;;
68250;SDS011;55066;51.560;4.642;2022-09-21T13:15:57;3.83;;;0.70;;
68250;SDS011;55066;51.560;4.642;2022-09-21T13:18:39;4.75;;;0.70;;
68250;SDS011;55066;51.560;4.642;2022-09-21T13:23:50;2.38;;;0.70;;
68250;SDS011;55066;51.560;4.642;2022-09-21T13:26:27;4.10;;;1.00;;
68250;SDS011;55066;51.560;4.642;2022-09-21T13:31:39;4.25;;;0.90;;
68250;SDS011;55066;51.560;4.642;2022-09-21T13:36:40;3.17;;;0.83;;
68250;SDS011;55066;51.560;4.642;2022-09-21T13:41:32;3.50;;;0.90;;
68250;SDS011;55066;51.560;4.642;2022-09-21T13:44:44;2.58;;;0.70;;
68250;SDS011;55066;51.560;4.642;2022-09-21T13:46:47;3.85;;;0.80;;
68250;SDS011;55066;51.560;4.642;2022-09-21T13:49:16;4.25;;;0.77;;
68250;SDS011;55066;51.560;4.642;2022-09-21T13:51:49;2.53;;;0.70;;
68250;SDS011;55066;51.560;4.642;2022-09-21T13:54:15;4.13;;;1.00;;
68250;SDS011;55066;51.560;4.642;2022-09-21T13:56:42;2.65;;;0.70;;
68250;SDS011;55066;51.560;4.642;2022-09-21T13:59:16;2.20;;;0.63;;
68250;SDS011;55066;51.560;4.642;2022-09-21T14:01:47;5.57;;;0.60;;
68250;SDS011;55066;51.560;4.642;2022-09-21T14:04:22;4.03;;;0.93;;
68250;SDS011;55066;51.560;4.642;2022-09-21T14:06:54;3.87;;;0.93;;
68250;SDS011;55066;51.560;4.642;2022-09-21T14:09:27;3.53;;;0.60;;
68250;SDS011;55066;51.560;4.642;2022-09-21T14:12:05;3.03;;;0.63;;
68250;SDS011;55066;51.560;4.642;2022-09-21T14:14:35;3.28;;;0.80;;
68250;SDS011;55066;51.560;4.642;2022-09-21T14:17:32;3.75;;;0.90;;
68250;SDS011;55066;51.560;4.642;2022-09-21T14:19:59;3.37;;;0.70;;
68250;SDS011;55066;51.560;4.642;2022-09-21T14:28:02;4.88;;;0.80;;
68250;SDS011;55066;51.560;4.642;2022-09-21T14:30:31;4.67;;;0.70;;
68250;SDS011;55066;51.560;4.642;2022-09-21T14:33:02;3.15;;;0.70;;
68250;SDS011;55066;51.560;4.642;2022-09-21T14:35:33;2.95;;;0.80;;
68250;SDS011;55066;51.560;4.642;2022-09-21T14:38:03;2.90;;;0.77;;
68250;SDS011;55066;51.560;4.642;2022-09-21T14:40:38;2.75;;;0.60;;
68250;SDS011;55066;51.560;4.642;2022-09-21T14:43:11;5.87;;;0.80;;
68250;SDS011;55066;51.560;4.642;2022-09-21T14:45:55;3.90;;;0.65;;
68250;SDS011;55066;51.560;4.642;2022-09-21T14:51:28;4.43;;;0.90;;
68250;SDS011;55066;51.560;4.642;2022-09-21T14:54:24;3.10;;;1.00;;
68250;SDS011;55066;51.560;4.642;2022-09-21T14:57:24;2.45;;;0.70;;
68250;SDS011;55066;51.560;4.642;2022-09-21T15:00:18;2.55;;;0.77;;
68250;SDS011;55066;51.560;4.642;2022-09-21T15:02:47;3.07;;;0.70;;
68250;SDS011;55066;51.560;4.642;2022-09-21T15:11:25;5.13;;;1.00;;
68250;SDS011;55066;51.560;4.642;2022-09-21T15:17:00;4.60;;;0.87;;
68250;SDS011;55066;51.560;4.642;2022-09-21T15:19:46;7.03;;;1.92;;
68250;SDS011;55066;51.560;4.642;2022-09-21T15:22:17;5.78;;;1.83;;
68250;SDS011;55066;51.560;4.642;2022-09-21T15:24:49;14.02;;;7.43;;
68250;SDS011;55066;51.560;4.642;2022-09-21T15:27:16;5.65;;;2.00;;
68250;SDS011;55066;51.560;4.642;2022-09-21T15:29:44;5.17;;;1.83;;
68250;SDS011;55066;51.560;4.642;2022-09-21T15:32:22;4.15;;;1.40;;
68250;SDS011;55066;51.560;4.642;2022-09-21T15:34:56;5.90;;;1.10;;
68250;SDS011;55066;51.560;4.642;2022-09-21T15:37:25;3.08;;;1.13;;
68250;SDS011;55066;51.560;4.642;2022-09-21T15:40:02;6.18;;;0.90;;
68250;SDS011;55066;51.560;4.642;2022-09-21T15:42:33;2.07;;;0.83;;
68250;SDS011;55066;51.560;4.642;2022-09-21T15:45:16;2.88;;;0.77;;
68250;SDS011;55066;51.560;4.642;2022-09-21T15:47:42;4.13;;;1.05;;
68250;SDS011;55066;51.560;4.642;2022-09-21T15:50:13;3.78;;;1.10;;
68250;SDS011;55066;51.560;4.642;2022-09-21T15:52:41;2.78;;;0.85;;
68250;SDS011;55066;51.560;4.642;2022-09-21T15:55:18;3.33;;;0.83;;
68250;SDS011;55066;51.560;4.642;2022-09-21T15:57:46;4.65;;;1.05;;
68250;SDS011;55066;51.560;4.642;2022-09-21T16:02:40;3.73;;;1.20;;
68250;SDS011;55066;51.560;4.642;2022-09-21T16:05:18;4.95;;;0.90;;
68250;SDS011;55066;51.560;4.642;2022-09-21T16:07:46;6.03;;;1.10;;
68250;SDS011;55066;51.560;4.642;2022-09-21T16:13:03;2.40;;;0.80;;
68250;SDS011;55066;51.560;4.642;2022-09-21T16:16:08;8.00;;;1.20;;
68250;SDS011;55066;51.560;4.642;2022-09-21T16:21:16;4.32;;;1.10;;
68250;SDS011;55066;51.560;4.642;2022-09-21T16:23:49;3.88;;;1.08;;
68250;SDS011;55066;51.560;4.642;2022-09-21T16:26:35;3.20;;;1.00;;
68250;SDS011;55066;51.560;4.642;2022-09-21T16:34:43;6.35;;;0.93;;
68250;SDS011;55066;51.560;4.642;2022-09-21T16:37:20;4.20;;;1.00;;
68250;SDS011;55066;51.560;4.642;2022-09-21T16:39:49;7.10;;;1.00;;
68250;SDS011;55066;51.560;4.642;2022-09-21T16:42:33;3.30;;;1.07;;
68250;SDS011;55066;51.560;4.642;2022-09-21T16:44:59;3.10;;;0.70;;
68250;SDS011;55066;51.560;4.642;2022-09-21T16:47:26;4.30;;;0.90;;
68250;SDS011;55066;51.560;4.642;2022-09-21T16:49:52;5.50;;;0.95;;
68250;SDS011;55066;51.560;4.642;2022-09-21T16:52:23;5.00;;;1.00;;
68250;SDS011;55066;51.560;4.642;2022-09-21T16:54:50;2.78;;;0.80;;
68250;SDS011;55066;51.560;4.642;2022-09-21T16:57:16;6.67;;;1.00;;
68250;SDS011;55066;51.560;4.642;2022-09-21T16:59:42;3.40;;;1.00;;
68250;SDS011;55066;51.560;4.642;2022-09-21T17:02:08;6.00;;;1.20;;
68250;SDS011;55066;51.560;4.642;2022-09-21T17:04:36;3.75;;;1.10;;
68250;SDS011;55066;51.560;4.642;2022-09-21T17:07:02;3.95;;;1.42;;
68250;SDS011;55066;51.560;4.642;2022-09-21T17:09:31;6.07;;;1.55;;
68250;SDS011;55066;51.560;4.642;2022-09-21T17:12:06;5.27;;;1.10;;
68250;SDS011;55066;51.560;4.642;2022-09-21T17:14:33;5.95;;;1.20;;
68250;SDS011;55066;51.560;4.642;2022-09-21T17:17:00;3.38;;;1.13;;
68250;SDS011;55066;51.560;4.642;2022-09-21T17:19:38;4.88;;;1.30;;
68250;SDS011;55066;51.560;4.642;2022-09-21T17:22:06;4.05;;;1.30;;
68250;SDS011;55066;51.560;4.642;2022-09-21T17:24:41;3.90;;;0.97;;
68250;SDS011;55066;51.560;4.642;2022-09-21T17:27:26;3.78;;;1.02;;
68250;SDS011;55066;51.560;4.642;2022-09-21T17:29:53;4.45;;;1.20;;
68250;SDS011;55066;51.560;4.642;2022-09-21T17:32:19;6.28;;;1.45;;
68250;SDS011;55066;51.560;4.642;2022-09-21T17:34:52;5.85;;;1.58;;
68250;SDS011;55066;51.560;4.642;2022-09-21T17:37:21;8.60;;;1.50;;
68250;SDS011;55066;51.560;4.642;2022-09-21T17:39:49;5.88;;;1.85;;
68250;SDS011;55066;51.560;4.642;2022-09-21T17:42:16;5.80;;;1.40;;
68250;SDS011;55066;51.560;4.642;2022-09-21T17:47:11;7.47;;;1.63;;
68250;SDS011;55066;51.560;4.642;2022-09-21T17:49:53;6.00;;;1.60;;
68250;SDS011;55066;51.560;4.642;2022-09-21T17:52:22;3.25;;;1.38;;